sensor_id;sensor_type;location;lat;lon;timestamp;temperature;humidity
43999;DHT22;51319;52.162;5.302;2023-04-24T00:00:22;10.10;99.90
43999;DHT22;51319;52.162;5.302;2023-04-24T00:02:49;10.00;99.90
43999;DHT22;51319;52.162;5.302;2023-04-24T00:05:17;10.00;99.90
43999;DHT22;51319;52.162;5.302;2023-04-24T00:07:45;10.00;99.90
43999;DHT22;51319;52.162;5.302;2023-04-24T00:10:12;10.00;99.90
43999;DHT22;51319;52.162;5.302;2023-04-24T00:12:39;10.00;99.90
43999;DHT22;51319;52.162;5.302;2023-04-24T00:15:07;10.00;99.90
43999;DHT22;51319;52.162;5.302;2023-04-24T00:17:34;10.00;99.90
43999;DHT22;51319;52.162;5.302;2023-04-24T00:20:01;10.00;99.90
43999;DHT22;51319;52.162;5.302;2023-04-24T00:22:32;10.00;99.90
43999;DHT22;51319;52.162;5.302;2023-04-24T00:24:59;9.90;99.90
43999;DHT22;51319;52.162;5.302;2023-04-24T00:27:26;9.90;99.90
43999;DHT22;51319;52.162;5.302;2023-04-24T00:29:55;9.90;99.90
43999;DHT22;51319;52.162;5.302;2023-04-24T00:32:24;9.80;99.90
43999;DHT22;51319;52.162;5.302;2023-04-24T00:34:51;9.80;99.90
43999;DHT22;51319;52.162;5.302;2023-04-24T00:37:18;9.70;99.90
43999;DHT22;51319;52.162;5.302;2023-04-24T00:39:47;9.70;99.90
43999;DHT22;51319;52.162;5.302;2023-04-24T00:42:15;9.60;99.90
43999;DHT22;51319;52.162;5.302;2023-04-24T00:44:43;9.60;99.90
43999;DHT22;51319;52.162;5.302;2023-04-24T00:47:14;9.60;99.90
43999;DHT22;51319;52.162;5.302;2023-04-24T00:49:41;9.60;99.90
43999;DHT22;51319;52.162;5.302;2023-04-24T00:52:10;9.60;99.90
43999;DHT22;51319;52.162;5.302;2023-04-24T00:54:37;9.70;99.90
43999;DHT22;51319;52.162;5.302;2023-04-24T00:57:05;9.70;99.90
43999;DHT22;51319;52.162;5.302;2023-04-24T00:59:32;9.70;99.90
43999;DHT22;51319;52.162;5.302;2023-04-24T01:01:59;9.70;99.90
43999;DHT22;51319;52.162;5.302;2023-04-24T01:04:27;9.70;99.90
43999;DHT22;51319;52.162;5.302;2023-04-24T01:06:55;9.70;99.90
43999;DHT22;51319;52.162;5.302;2023-04-24T01:09:23;9.70;99.90
43999;DHT22;51319;52.162;5.302;2023-04-24T01:11:51;9.70;99.90
43999;DHT22;51319;52.162;5.302;2023-04-24T01:14:18;9.70;99.90
43999;DHT22;51319;52.162;5.302;2023-04-24T01:16:45;9.70;99.90
43999;DHT22;51319;52.162;5.302;2023-04-24T01:19:13;9.70;99.90
43999;DHT22;51319;52.162;5.302;2023-04-24T01:21:42;9.70;99.90
43999;DHT22;51319;52.162;5.302;2023-04-24T01:24:10;9.70;99.90
43999;DHT22;51319;52.162;5.302;2023-04-24T01:26:37;9.80;99.90
43999;DHT22;51319;52.162;5.302;2023-04-24T01:31:49;9.80;99.90
43999;DHT22;51319;52.162;5.302;2023-04-24T01:34:17;9.80;99.90
43999;DHT22;51319;52.162;5.302;2023-04-24T01:36:45;9.80;99.90
43999;DHT22;51319;52.162;5.302;2023-04-24T01:39:13;9.80;99.90
43999;DHT22;51319;52.162;5.302;2023-04-24T01:41:42;9.80;99.90
43999;DHT22;51319;52.162;5.302;2023-04-24T01:44:10;9.80;99.90
43999;DHT22;51319;52.162;5.302;2023-04-24T01:46:37;9.80;99.90
43999;DHT22;51319;52.162;5.302;2023-04-24T01:49:04;9.80;99.90
43999;DHT22;51319;52.162;5.302;2023-04-24T01:51:32;9.80;99.90
43999;DHT22;51319;52.162;5.302;2023-04-24T01:53:59;9.80;99.90
43999;DHT22;51319;52.162;5.302;2023-04-24T01:56:29;9.80;99.90
43999;DHT22;51319;52.162;5.302;2023-04-24T01:58:57;9.80;99.90
43999;DHT22;51319;52.162;5.302;2023-04-24T02:01:44;9.80;99.90
43999;DHT22;51319;52.162;5.302;2023-04-24T02:04:11;9.80;99.90
43999;DHT22;51319;52.162;5.302;2023-04-24T02:06:39;9.80;99.90
43999;DHT22;51319;52.162;5.302;2023-04-24T02:09:06;9.80;99.90
43999;DHT22;51319;52.162;5.302;2023-04-24T02:11:33;9.80;99.90
43999;DHT22;51319;52.162;5.302;2023-04-24T02:13:59;9.80;99.90
43999;DHT22;51319;52.162;5.302;2023-04-24T02:16:28;9.90;99.90
43999;DHT22;51319;52.162;5.302;2023-04-24T02:18:59;9.90;99.90
43999;DHT22;51319;52.162;5.302;2023-04-24T02:21:31;9.90;99.90
43999;DHT22;51319;52.162;5.302;2023-04-24T02:23:58;9.90;99.90
43999;DHT22;51319;52.162;5.302;2023-04-24T02:26:25;9.90;99.90
43999;DHT22;51319;52.162;5.302;2023-04-24T02:28:52;9.90;99.90
43999;DHT22;51319;52.162;5.302;2023-04-24T02:31:19;9.90;99.90
43999;DHT22;51319;52.162;5.302;2023-04-24T02:33:46;9.90;99.90
43999;DHT22;51319;52.162;5.302;2023-04-24T02:36:13;9.90;99.90
43999;DHT22;51319;52.162;5.302;2023-04-24T02:38:40;9.90;99.90
43999;DHT22;51319;52.162;5.302;2023-04-24T02:41:07;9.90;99.90
43999;DHT22;51319;52.162;5.302;2023-04-24T02:43:35;9.90;99.90
43999;DHT22;51319;52.162;5.302;2023-04-24T02:46:02;9.90;99.90
43999;DHT22;51319;52.162;5.302;2023-04-24T02:48:29;9.90;99.90
43999;DHT22;51319;52.162;5.302;2023-04-24T02:50:56;9.90;99.90
43999;DHT22;51319;52.162;5.302;2023-04-24T02:53:24;9.90;99.90
43999;DHT22;51319;52.162;5.302;2023-04-24T02:55:51;9.90;99.90
43999;DHT22;51319;52.162;5.302;2023-04-24T02:58:18;9.90;99.90
43999;DHT22;51319;52.162;5.302;2023-04-24T03:03:32;9.80;99.90
43999;DHT22;51319;52.162;5.302;2023-04-24T03:05:59;9.80;99.90
43999;DHT22;51319;52.162;5.302;2023-04-24T03:08:26;9.70;99.90
43999;DHT22;51319;52.162;5.302;2023-04-24T03:10:53;9.80;99.90
43999;DHT22;51319;52.162;5.302;2023-04-24T03:13:20;9.80;99.90
43999;DHT22;51319;52.162;5.302;2023-04-24T03:15:47;9.70;99.90
43999;DHT22;51319;52.162;5.302;2023-04-24T03:18:14;9.70;99.90
43999;DHT22;51319;52.162;5.302;2023-04-24T03:20:42;9.70;99.90
43999;DHT22;51319;52.162;5.302;2023-04-24T03:23:11;9.70;99.90
43999;DHT22;51319;52.162;5.302;2023-04-24T03:25:38;9.70;99.90
43999;DHT22;51319;52.162;5.302;2023-04-24T03:28:09;9.70;99.90
43999;DHT22;51319;52.162;5.302;2023-04-24T03:30:36;9.70;99.90
43999;DHT22;51319;52.162;5.302;2023-04-24T03:33:03;9.60;99.90
43999;DHT22;51319;52.162;5.302;2023-04-24T03:35:30;9.60;99.90
43999;DHT22;51319;52.162;5.302;2023-04-24T03:37:57;9.60;99.90
43999;DHT22;51319;52.162;5.302;2023-04-24T03:40:24;9.60;99.90
43999;DHT22;51319;52.162;5.302;2023-04-24T03:42:51;9.60;99.90
43999;DHT22;51319;52.162;5.302;2023-04-24T03:45:21;9.60;99.90
43999;DHT22;51319;52.162;5.302;2023-04-24T03:47:47;9.60;99.90
43999;DHT22;51319;52.162;5.302;2023-04-24T03:50:14;9.60;99.90
43999;DHT22;51319;52.162;5.302;2023-04-24T03:52:44;9.60;99.90
43999;DHT22;51319;52.162;5.302;2023-04-24T03:55:11;9.60;99.90
43999;DHT22;51319;52.162;5.302;2023-04-24T03:57:40;9.60;99.90
43999;DHT22;51319;52.162;5.302;2023-04-24T04:00:08;9.60;99.90
43999;DHT22;51319;52.162;5.302;2023-04-24T04:02:35;9.60;99.90
43999;DHT22;51319;52.162;5.302;2023-04-24T04:05:02;9.60;99.90
43999;DHT22;51319;52.162;5.302;2023-04-24T04:07:29;9.50;99.90
43999;DHT22;51319;52.162;5.302;2023-04-24T04:09:57;9.60;99.90
43999;DHT22;51319;52.162;5.302;2023-04-24T04:12:23;9.60;99.90
43999;DHT22;51319;52.162;5.302;2023-04-24T04:14:50;9.60;99.90
43999;DHT22;51319;52.162;5.302;2023-04-24T04:17:18;9.60;99.90
43999;DHT22;51319;52.162;5.302;2023-04-24T04:19:44;9.60;99.90
43999;DHT22;51319;52.162;5.302;2023-04-24T04:22:12;9.50;99.90
43999;DHT22;51319;52.162;5.302;2023-04-24T04:24:38;9.50;99.90
43999;DHT22;51319;52.162;5.302;2023-04-24T04:27:07;9.60;99.90
43999;DHT22;51319;52.162;5.302;2023-04-24T04:29:34;9.60;99.90
43999;DHT22;51319;52.162;5.302;2023-04-24T04:32:02;9.60;99.90
43999;DHT22;51319;52.162;5.302;2023-04-24T04:34:37;9.60;99.90
43999;DHT22;51319;52.162;5.302;2023-04-24T04:37:04;9.60;99.90
43999;DHT22;51319;52.162;5.302;2023-04-24T04:39:33;9.60;99.90
43999;DHT22;51319;52.162;5.302;2023-04-24T04:42:02;9.60;99.90
43999;DHT22;51319;52.162;5.302;2023-04-24T04:44:29;9.60;99.90
43999;DHT22;51319;52.162;5.302;2023-04-24T04:46:57;9.60;99.90
43999;DHT22;51319;52.162;5.302;2023-04-24T04:49:25;9.60;99.90
43999;DHT22;51319;52.162;5.302;2023-04-24T04:51:54;9.70;99.90
43999;DHT22;51319;52.162;5.302;2023-04-24T04:54:22;9.70;99.90
43999;DHT22;51319;52.162;5.302;2023-04-24T04:56:52;9.70;99.90
43999;DHT22;51319;52.162;5.302;2023-04-24T04:59:19;9.70;99.90
43999;DHT22;51319;52.162;5.302;2023-04-24T05:01:46;9.70;99.90
43999;DHT22;51319;52.162;5.302;2023-04-24T05:04:13;9.70;99.90
43999;DHT22;51319;52.162;5.302;2023-04-24T05:06:40;9.70;99.90
43999;DHT22;51319;52.162;5.302;2023-04-24T05:09:07;9.80;99.90
43999;DHT22;51319;52.162;5.302;2023-04-24T05:11:34;9.80;99.90
43999;DHT22;51319;52.162;5.302;2023-04-24T05:14:01;9.80;99.90
43999;DHT22;51319;52.162;5.302;2023-04-24T05:16:28;9.80;99.90
43999;DHT22;51319;52.162;5.302;2023-04-24T05:18:58;9.90;99.90
43999;DHT22;51319;52.162;5.302;2023-04-24T05:21:25;9.80;99.90
43999;DHT22;51319;52.162;5.302;2023-04-24T05:23:53;9.90;99.90
43999;DHT22;51319;52.162;5.302;2023-04-24T05:26:20;9.80;99.90
43999;DHT22;51319;52.162;5.302;2023-04-24T05:28:48;9.80;99.90
43999;DHT22;51319;52.162;5.302;2023-04-24T05:31:15;9.80;99.90
43999;DHT22;51319;52.162;5.302;2023-04-24T05:33:46;9.70;99.90
43999;DHT22;51319;52.162;5.302;2023-04-24T05:36:13;9.70;99.90
43999;DHT22;51319;52.162;5.302;2023-04-24T05:38:49;9.70;99.90
43999;DHT22;51319;52.162;5.302;2023-04-24T05:41:17;9.70;99.90
43999;DHT22;51319;52.162;5.302;2023-04-24T05:43:44;9.60;99.90
43999;DHT22;51319;52.162;5.302;2023-04-24T05:46:11;9.50;99.90
43999;DHT22;51319;52.162;5.302;2023-04-24T05:48:39;9.50;99.90
43999;DHT22;51319;52.162;5.302;2023-04-24T05:51:07;9.40;99.90
43999;DHT22;51319;52.162;5.302;2023-04-24T05:53:35;9.40;99.90
43999;DHT22;51319;52.162;5.302;2023-04-24T05:56:02;9.40;99.90
43999;DHT22;51319;52.162;5.302;2023-04-24T05:58:29;9.40;99.90
43999;DHT22;51319;52.162;5.302;2023-04-24T06:00:56;9.30;99.90
43999;DHT22;51319;52.162;5.302;2023-04-24T06:03:25;9.30;99.90
43999;DHT22;51319;52.162;5.302;2023-04-24T06:05:52;9.30;99.90
43999;DHT22;51319;52.162;5.302;2023-04-24T06:08:19;9.20;99.90
43999;DHT22;51319;52.162;5.302;2023-04-24T06:10:49;9.20;99.90
43999;DHT22;51319;52.162;5.302;2023-04-24T06:13:16;9.20;99.90
43999;DHT22;51319;52.162;5.302;2023-04-24T06:15:44;9.20;99.90
43999;DHT22;51319;52.162;5.302;2023-04-24T06:18:11;9.20;99.90
43999;DHT22;51319;52.162;5.302;2023-04-24T06:20:39;9.20;99.90
43999;DHT22;51319;52.162;5.302;2023-04-24T06:23:06;9.20;99.90
43999;DHT22;51319;52.162;5.302;2023-04-24T06:25:33;9.20;99.90
43999;DHT22;51319;52.162;5.302;2023-04-24T06:28:01;9.20;99.90
43999;DHT22;51319;52.162;5.302;2023-04-24T06:30:31;9.20;99.90
43999;DHT22;51319;52.162;5.302;2023-04-24T06:32:58;9.20;99.90
43999;DHT22;51319;52.162;5.302;2023-04-24T06:38:33;9.20;99.90
43999;DHT22;51319;52.162;5.302;2023-04-24T06:41:01;9.30;99.90
43999;DHT22;51319;52.162;5.302;2023-04-24T06:43:28;9.20;99.90
43999;DHT22;51319;52.162;5.302;2023-04-24T06:45:55;9.20;99.90
43999;DHT22;51319;52.162;5.302;2023-04-24T06:48:22;9.20;99.90
43999;DHT22;51319;52.162;5.302;2023-04-24T06:50:50;9.20;99.90
43999;DHT22;51319;52.162;5.302;2023-04-24T06:53:18;9.20;99.90
43999;DHT22;51319;52.162;5.302;2023-04-24T06:55:45;9.20;99.90
43999;DHT22;51319;52.162;5.302;2023-04-24T06:58:12;9.20;99.90
43999;DHT22;51319;52.162;5.302;2023-04-24T07:00:40;9.20;99.90
43999;DHT22;51319;52.162;5.302;2023-04-24T07:03:07;9.20;99.90
43999;DHT22;51319;52.162;5.302;2023-04-24T07:05:35;9.20;99.90
43999;DHT22;51319;52.162;5.302;2023-04-24T07:08:03;9.20;99.90
43999;DHT22;51319;52.162;5.302;2023-04-24T07:10:30;9.20;99.90
43999;DHT22;51319;52.162;5.302;2023-04-24T07:12:56;9.20;99.90
43999;DHT22;51319;52.162;5.302;2023-04-24T07:15:23;9.20;99.90
43999;DHT22;51319;52.162;5.302;2023-04-24T07:17:50;9.10;99.90
43999;DHT22;51319;52.162;5.302;2023-04-24T07:20:18;9.10;99.90
43999;DHT22;51319;52.162;5.302;2023-04-24T07:22:45;9.10;99.90
43999;DHT22;51319;52.162;5.302;2023-04-24T07:25:12;9.10;99.90
43999;DHT22;51319;52.162;5.302;2023-04-24T07:27:40;9.20;99.90
43999;DHT22;51319;52.162;5.302;2023-04-24T07:30:08;9.20;99.90
43999;DHT22;51319;52.162;5.302;2023-04-24T07:32:35;9.20;99.90
43999;DHT22;51319;52.162;5.302;2023-04-24T07:35:02;9.20;99.90
43999;DHT22;51319;52.162;5.302;2023-04-24T07:37:29;9.20;99.90
43999;DHT22;51319;52.162;5.302;2023-04-24T07:39:57;9.30;99.90
43999;DHT22;51319;52.162;5.302;2023-04-24T07:42:24;9.30;99.90
43999;DHT22;51319;52.162;5.302;2023-04-24T07:44:51;9.30;99.90
43999;DHT22;51319;52.162;5.302;2023-04-24T07:47:18;9.30;99.90
43999;DHT22;51319;52.162;5.302;2023-04-24T07:49:45;9.40;99.90
43999;DHT22;51319;52.162;5.302;2023-04-24T07:52:17;9.40;99.90
43999;DHT22;51319;52.162;5.302;2023-04-24T07:54:44;9.40;99.90
43999;DHT22;51319;52.162;5.302;2023-04-24T07:57:12;9.40;99.90
43999;DHT22;51319;52.162;5.302;2023-04-24T07:59:39;9.40;99.90
43999;DHT22;51319;52.162;5.302;2023-04-24T08:02:09;9.40;99.90
43999;DHT22;51319;52.162;5.302;2023-04-24T08:04:36;9.30;99.90
43999;DHT22;51319;52.162;5.302;2023-04-24T08:07:03;9.30;99.90
43999;DHT22;51319;52.162;5.302;2023-04-24T08:09:31;9.30;99.90
43999;DHT22;51319;52.162;5.302;2023-04-24T08:11:57;9.20;99.90
43999;DHT22;51319;52.162;5.302;2023-04-24T08:14:24;9.20;99.90
43999;DHT22;51319;52.162;5.302;2023-04-24T08:16:54;9.20;99.90
43999;DHT22;51319;52.162;5.302;2023-04-24T08:19:22;9.20;99.90
43999;DHT22;51319;52.162;5.302;2023-04-24T08:21:49;9.10;99.90
43999;DHT22;51319;52.162;5.302;2023-04-24T08:24:16;9.10;99.90
43999;DHT22;51319;52.162;5.302;2023-04-24T08:26:43;9.10;99.90
43999;DHT22;51319;52.162;5.302;2023-04-24T08:29:10;9.10;99.90
43999;DHT22;51319;52.162;5.302;2023-04-24T08:31:38;9.20;99.90
43999;DHT22;51319;52.162;5.302;2023-04-24T08:34:05;9.30;99.90
43999;DHT22;51319;52.162;5.302;2023-04-24T08:36:32;9.30;99.90
43999;DHT22;51319;52.162;5.302;2023-04-24T08:39:12;9.50;99.90
43999;DHT22;51319;52.162;5.302;2023-04-24T08:41:41;9.60;99.90
43999;DHT22;51319;52.162;5.302;2023-04-24T08:44:09;9.60;99.90
43999;DHT22;51319;52.162;5.302;2023-04-24T08:46:37;9.70;99.90
43999;DHT22;51319;52.162;5.302;2023-04-24T08:49:04;9.70;99.90
43999;DHT22;51319;52.162;5.302;2023-04-24T08:51:31;9.80;99.90
43999;DHT22;51319;52.162;5.302;2023-04-24T08:53:58;9.80;99.90
43999;DHT22;51319;52.162;5.302;2023-04-24T08:56:26;9.70;99.90
43999;DHT22;51319;52.162;5.302;2023-04-24T08:58:59;9.80;99.90
43999;DHT22;51319;52.162;5.302;2023-04-24T09:01:26;9.80;99.90
43999;DHT22;51319;52.162;5.302;2023-04-24T09:03:55;9.80;99.90
43999;DHT22;51319;52.162;5.302;2023-04-24T09:06:23;9.80;99.90
43999;DHT22;51319;52.162;5.302;2023-04-24T09:08:52;9.80;99.90
43999;DHT22;51319;52.162;5.302;2023-04-24T09:11:21;9.90;99.90
43999;DHT22;51319;52.162;5.302;2023-04-24T09:13:50;10.10;99.90
43999;DHT22;51319;52.162;5.302;2023-04-24T09:16:18;10.30;99.90
43999;DHT22;51319;52.162;5.302;2023-04-24T09:18:47;10.50;99.90
43999;DHT22;51319;52.162;5.302;2023-04-24T09:21:14;10.60;99.90
43999;DHT22;51319;52.162;5.302;2023-04-24T09:23:41;10.70;99.90
43999;DHT22;51319;52.162;5.302;2023-04-24T09:26:09;10.80;99.90
43999;DHT22;51319;52.162;5.302;2023-04-24T09:28:39;10.90;99.90
43999;DHT22;51319;52.162;5.302;2023-04-24T09:31:21;11.20;99.90
43999;DHT22;51319;52.162;5.302;2023-04-24T09:34:01;11.50;99.90
43999;DHT22;51319;52.162;5.302;2023-04-24T09:36:45;11.70;99.90
43999;DHT22;51319;52.162;5.302;2023-04-24T09:39:15;11.70;99.90
43999;DHT22;51319;52.162;5.302;2023-04-24T09:41:53;11.70;99.90
43999;DHT22;51319;52.162;5.302;2023-04-24T09:44:27;11.50;99.90
43999;DHT22;51319;52.162;5.302;2023-04-24T09:46:57;11.20;99.90
43999;DHT22;51319;52.162;5.302;2023-04-24T09:49:27;11.00;99.90
43999;DHT22;51319;52.162;5.302;2023-04-24T09:52:10;10.80;99.90
43999;DHT22;51319;52.162;5.302;2023-04-24T09:54:39;10.70;99.90
43999;DHT22;51319;52.162;5.302;2023-04-24T09:57:08;10.70;99.90
43999;DHT22;51319;52.162;5.302;2023-04-24T09:59:47;10.70;99.90
43999;DHT22;51319;52.162;5.302;2023-04-24T10:02:20;10.80;99.90
43999;DHT22;51319;52.162;5.302;2023-04-24T10:04:55;11.00;99.90
43999;DHT22;51319;52.162;5.302;2023-04-24T10:07:26;11.10;99.90
43999;DHT22;51319;52.162;5.302;2023-04-24T10:09:53;11.20;99.90
43999;DHT22;51319;52.162;5.302;2023-04-24T10:12:21;11.20;99.90
43999;DHT22;51319;52.162;5.302;2023-04-24T10:14:49;11.10;99.90
43999;DHT22;51319;52.162;5.302;2023-04-24T10:17:17;11.20;99.90
43999;DHT22;51319;52.162;5.302;2023-04-24T10:19:46;11.20;99.90
43999;DHT22;51319;52.162;5.302;2023-04-24T10:22:14;11.20;99.90
43999;DHT22;51319;52.162;5.302;2023-04-24T10:24:44;11.20;99.90
43999;DHT22;51319;52.162;5.302;2023-04-24T10:27:13;11.50;99.90
43999;DHT22;51319;52.162;5.302;2023-04-24T10:29:43;11.70;99.90
43999;DHT22;51319;52.162;5.302;2023-04-24T10:32:11;11.90;99.90
43999;DHT22;51319;52.162;5.302;2023-04-24T10:34:38;12.60;99.90
43999;DHT22;51319;52.162;5.302;2023-04-24T10:37:05;13.50;99.90
43999;DHT22;51319;52.162;5.302;2023-04-24T10:39:33;14.40;99.90
43999;DHT22;51319;52.162;5.302;2023-04-24T10:42:01;14.20;98.20
43999;DHT22;51319;52.162;5.302;2023-04-24T10:44:36;13.70;97.20
43999;DHT22;51319;52.162;5.302;2023-04-24T10:47:03;13.10;96.60
43999;DHT22;51319;52.162;5.302;2023-04-24T10:49:31;12.70;97.70
43999;DHT22;51319;52.162;5.302;2023-04-24T10:52:03;12.40;98.30
43999;DHT22;51319;52.162;5.302;2023-04-24T10:54:46;12.30;98.50
43999;DHT22;51319;52.162;5.302;2023-04-24T10:57:26;12.10;98.60
43999;DHT22;51319;52.162;5.302;2023-04-24T11:00:15;12.00;98.90
43999;DHT22;51319;52.162;5.302;2023-04-24T11:02:42;11.70;98.60
43999;DHT22;51319;52.162;5.302;2023-04-24T11:05:20;11.50;99.20
43999;DHT22;51319;52.162;5.302;2023-04-24T11:08:27;11.20;99.40
43999;DHT22;51319;52.162;5.302;2023-04-24T11:10:56;11.10;99.90
43999;DHT22;51319;52.162;5.302;2023-04-24T11:13:26;11.00;99.90
43999;DHT22;51319;52.162;5.302;2023-04-24T11:16:13;10.90;99.90
43999;DHT22;51319;52.162;5.302;2023-04-24T11:18:42;10.90;99.90
43999;DHT22;51319;52.162;5.302;2023-04-24T11:21:13;11.10;99.90
43999;DHT22;51319;52.162;5.302;2023-04-24T11:23:40;11.60;99.90
43999;DHT22;51319;52.162;5.302;2023-04-24T11:26:11;12.90;99.90
43999;DHT22;51319;52.162;5.302;2023-04-24T11:28:49;14.60;99.90
43999;DHT22;51319;52.162;5.302;2023-04-24T11:34:10;15.80;96.50
43999;DHT22;51319;52.162;5.302;2023-04-24T11:36:42;15.10;94.40
43999;DHT22;51319;52.162;5.302;2023-04-24T11:39:10;14.50;94.50
43999;DHT22;51319;52.162;5.302;2023-04-24T11:41:37;14.30;94.70
43999;DHT22;51319;52.162;5.302;2023-04-24T11:44:08;14.30;94.80
43999;DHT22;51319;52.162;5.302;2023-04-24T11:46:38;14.30;94.50
43999;DHT22;51319;52.162;5.302;2023-04-24T11:49:07;14.60;95.30
43999;DHT22;51319;52.162;5.302;2023-04-24T11:51:35;15.30;95.40
43999;DHT22;51319;52.162;5.302;2023-04-24T11:54:18;15.90;94.20
43999;DHT22;51319;52.162;5.302;2023-04-24T11:56:52;16.70;93.00
43999;DHT22;51319;52.162;5.302;2023-04-24T11:59:19;16.70;90.90
43999;DHT22;51319;52.162;5.302;2023-04-24T12:01:49;16.10;91.30
43999;DHT22;51319;52.162;5.302;2023-04-24T12:04:18;15.60;91.00
43999;DHT22;51319;52.162;5.302;2023-04-24T12:07:02;15.10;91.10
43999;DHT22;51319;52.162;5.302;2023-04-24T12:09:40;14.70;89.50
43999;DHT22;51319;52.162;5.302;2023-04-24T12:12:08;14.50;90.80
43999;DHT22;51319;52.162;5.302;2023-04-24T12:14:45;14.20;91.30
43999;DHT22;51319;52.162;5.302;2023-04-24T12:17:16;13.80;90.90
43999;DHT22;51319;52.162;5.302;2023-04-24T12:19:47;13.40;91.30
43999;DHT22;51319;52.162;5.302;2023-04-24T12:22:14;13.10;91.70
43999;DHT22;51319;52.162;5.302;2023-04-24T12:25:14;12.80;92.40
43999;DHT22;51319;52.162;5.302;2023-04-24T12:27:42;12.70;92.20
43999;DHT22;51319;52.162;5.302;2023-04-24T12:30:14;12.70;93.00
43999;DHT22;51319;52.162;5.302;2023-04-24T12:32:43;12.80;93.10
43999;DHT22;51319;52.162;5.302;2023-04-24T12:35:10;12.90;93.10
43999;DHT22;51319;52.162;5.302;2023-04-24T12:37:37;12.80;92.80
43999;DHT22;51319;52.162;5.302;2023-04-24T12:40:08;12.50;92.30
43999;DHT22;51319;52.162;5.302;2023-04-24T12:42:41;12.40;92.60
43999;DHT22;51319;52.162;5.302;2023-04-24T12:45:09;12.20;92.80
43999;DHT22;51319;52.162;5.302;2023-04-24T12:47:39;12.20;93.10
43999;DHT22;51319;52.162;5.302;2023-04-24T12:50:12;12.10;93.10
43999;DHT22;51319;52.162;5.302;2023-04-24T12:52:40;12.00;93.10
43999;DHT22;51319;52.162;5.302;2023-04-24T12:55:08;11.80;93.60
43999;DHT22;51319;52.162;5.302;2023-04-24T12:57:37;11.80;94.00
43999;DHT22;51319;52.162;5.302;2023-04-24T13:00:06;11.80;94.60
43999;DHT22;51319;52.162;5.302;2023-04-24T13:02:33;11.70;94.80
43999;DHT22;51319;52.162;5.302;2023-04-24T13:05:04;11.70;95.50
43999;DHT22;51319;52.162;5.302;2023-04-24T13:07:31;11.80;96.10
43999;DHT22;51319;52.162;5.302;2023-04-24T13:09:58;11.90;95.90
43999;DHT22;51319;52.162;5.302;2023-04-24T13:12:26;11.90;95.10
43999;DHT22;51319;52.162;5.302;2023-04-24T13:14:53;12.10;95.30
43999;DHT22;51319;52.162;5.302;2023-04-24T13:17:21;12.20;95.00
43999;DHT22;51319;52.162;5.302;2023-04-24T13:19:50;12.40;94.90
43999;DHT22;51319;52.162;5.302;2023-04-24T13:22:18;12.60;94.40
43999;DHT22;51319;52.162;5.302;2023-04-24T13:24:45;13.10;94.80
43999;DHT22;51319;52.162;5.302;2023-04-24T13:27:12;14.00;93.70
43999;DHT22;51319;52.162;5.302;2023-04-24T13:29:39;14.30;91.90
43999;DHT22;51319;52.162;5.302;2023-04-24T13:32:06;14.30;90.90
43999;DHT22;51319;52.162;5.302;2023-04-24T13:34:33;14.30;90.70
43999;DHT22;51319;52.162;5.302;2023-04-24T13:37:01;14.60;90.60
43999;DHT22;51319;52.162;5.302;2023-04-24T13:39:30;14.70;88.90
43999;DHT22;51319;52.162;5.302;2023-04-24T13:41:57;14.20;87.40
43999;DHT22;51319;52.162;5.302;2023-04-24T13:44:25;13.90;86.90
43999;DHT22;51319;52.162;5.302;2023-04-24T13:46:53;13.50;87.10
43999;DHT22;51319;52.162;5.302;2023-04-24T13:49:21;13.40;86.10
43999;DHT22;51319;52.162;5.302;2023-04-24T13:51:49;13.20;87.50
43999;DHT22;51319;52.162;5.302;2023-04-24T13:54:18;13.30;89.60
43999;DHT22;51319;52.162;5.302;2023-04-24T13:56:47;14.20;90.70
43999;DHT22;51319;52.162;5.302;2023-04-24T13:59:14;14.50;89.10
43999;DHT22;51319;52.162;5.302;2023-04-24T14:01:40;14.40;86.20
43999;DHT22;51319;52.162;5.302;2023-04-24T14:04:07;14.80;86.90
43999;DHT22;51319;52.162;5.302;2023-04-24T14:06:36;15.00;83.40
43999;DHT22;51319;52.162;5.302;2023-04-24T14:09:03;14.80;82.00
43999;DHT22;51319;52.162;5.302;2023-04-24T14:14:05;14.50;80.80
43999;DHT22;51319;52.162;5.302;2023-04-24T14:16:32;14.50;82.50
43999;DHT22;51319;52.162;5.302;2023-04-24T14:19:02;14.60;81.70
43999;DHT22;51319;52.162;5.302;2023-04-24T14:21:29;14.50;81.20
43999;DHT22;51319;52.162;5.302;2023-04-24T14:23:56;14.20;77.90
43999;DHT22;51319;52.162;5.302;2023-04-24T14:26:23;13.90;79.50
43999;DHT22;51319;52.162;5.302;2023-04-24T14:28:52;13.60;80.80
43999;DHT22;51319;52.162;5.302;2023-04-24T14:31:36;13.50;81.40
43999;DHT22;51319;52.162;5.302;2023-04-24T14:34:05;13.40;81.50
43999;DHT22;51319;52.162;5.302;2023-04-24T14:36:32;13.30;81.10
43999;DHT22;51319;52.162;5.302;2023-04-24T14:39:00;13.30;81.10
43999;DHT22;51319;52.162;5.302;2023-04-24T14:41:30;13.30;81.80
43999;DHT22;51319;52.162;5.302;2023-04-24T14:43:58;13.20;81.20
43999;DHT22;51319;52.162;5.302;2023-04-24T14:49:06;12.90;82.00
43999;DHT22;51319;52.162;5.302;2023-04-24T14:51:36;12.90;83.50
43999;DHT22;51319;52.162;5.302;2023-04-24T14:54:03;12.90;84.40
43999;DHT22;51319;52.162;5.302;2023-04-24T14:56:30;12.90;85.10
43999;DHT22;51319;52.162;5.302;2023-04-24T14:58:58;12.80;85.30
43999;DHT22;51319;52.162;5.302;2023-04-24T15:01:25;12.70;85.50
43999;DHT22;51319;52.162;5.302;2023-04-24T15:03:52;12.60;84.40
43999;DHT22;51319;52.162;5.302;2023-04-24T15:06:19;12.50;85.60
43999;DHT22;51319;52.162;5.302;2023-04-24T15:08:49;12.30;85.80
43999;DHT22;51319;52.162;5.302;2023-04-24T15:11:17;12.10;85.80
43999;DHT22;51319;52.162;5.302;2023-04-24T15:13:44;12.10;86.30
43999;DHT22;51319;52.162;5.302;2023-04-24T15:16:17;12.20;87.50
43999;DHT22;51319;52.162;5.302;2023-04-24T15:18:45;12.20;87.90
43999;DHT22;51319;52.162;5.302;2023-04-24T15:21:12;12.10;86.70
43999;DHT22;51319;52.162;5.302;2023-04-24T15:23:40;12.10;87.00
43999;DHT22;51319;52.162;5.302;2023-04-24T15:26:06;12.10;86.90
43999;DHT22;51319;52.162;5.302;2023-04-24T15:28:53;12.10;85.50
43999;DHT22;51319;52.162;5.302;2023-04-24T15:31:22;12.10;86.50
43999;DHT22;51319;52.162;5.302;2023-04-24T15:33:50;12.10;85.60
43999;DHT22;51319;52.162;5.302;2023-04-24T15:36:17;12.00;84.90
43999;DHT22;51319;52.162;5.302;2023-04-24T15:38:44;12.00;84.40
43999;DHT22;51319;52.162;5.302;2023-04-24T15:41:12;11.90;85.00
43999;DHT22;51319;52.162;5.302;2023-04-24T15:43:38;11.90;85.50
43999;DHT22;51319;52.162;5.302;2023-04-24T15:46:08;11.80;85.90
43999;DHT22;51319;52.162;5.302;2023-04-24T15:48:36;11.80;86.10
43999;DHT22;51319;52.162;5.302;2023-04-24T15:51:05;11.80;86.50
43999;DHT22;51319;52.162;5.302;2023-04-24T15:53:32;11.80;84.60
43999;DHT22;51319;52.162;5.302;2023-04-24T15:55:59;11.80;84.40
43999;DHT22;51319;52.162;5.302;2023-04-24T15:58:26;11.70;83.90
43999;DHT22;51319;52.162;5.302;2023-04-24T16:00:53;11.70;84.20
43999;DHT22;51319;52.162;5.302;2023-04-24T16:03:20;11.70;83.20
43999;DHT22;51319;52.162;5.302;2023-04-24T16:05:48;11.60;83.00